Time;durP1;ratioP1;P1;durP2;ratioP2;P2;SDS_P1;SDS_P2;PMS_P1;PMS_P2;Temp;Humidity;BMP_temperature;BMP_pressure;BME280_temperature;BME280_humidity;BME280_pressure;Samples;Min_cycle;Max_cycle;Signal;HPM_P1;HPM_P2
2023/09/03 00:01:20;;;;;;;8.60;8.00;;;23.00;73.70;24.40;101550.00;;;;5029872;28;20259;-49
2023/09/03 00:03:45;;;;;;;8.25;7.55;;;23.00;73.70;24.40;101612.00;;;;5013613;28;20231;-50
2023/09/03 00:06:11;;;;;;;7.78;7.18;;;23.00;73.70;24.30;101609.00;;;;5036663;28;20281;-51
2023/09/03 00:08:37;;;;;;;8.25;7.55;;;23.00;73.50;24.30;101609.00;;;;5035953;28;20867;-48
2023/09/03 00:11:03;;;;;;;8.35;7.65;;;23.00;73.50;24.30;101612.00;;;;5027803;28;20195;-49
2023/09/03 00:13:28;;;;;;;7.88;7.25;;;23.00;73.50;24.30;101607.00;;;;5028258;28;20198;-49
2023/09/03 00:15:54;;;;;;;8.10;7.00;;;22.90;73.30;24.30;101616.00;;;;5028149;28;20182;-49
2023/09/03 00:18:20;;;;;;;7.63;7.03;;;22.90;73.30;24.30;101615.00;;;;5028010;28;20281;-50
2023/09/03 00:21:03;;;;;;;7.57;7.07;;;22.90;73.30;24.30;101614.00;;;;5028052;28;20860;-50
2023/09/03 00:23:30;;;;;;;7.32;6.72;;;22.90;73.20;24.20;101617.00;;;;5028370;28;20306;-48
2023/09/03 00:25:56;;;;;;;7.68;7.07;;;22.90;73.20;24.20;101614.00;;;;5028274;28;20194;-48
2023/09/03 00:28:23;;;;;;;7.60;6.90;;;22.80;73.00;24.20;101618.00;;;;5028228;28;20175;-49
2023/09/03 00:31:05;;;;;;;7.82;7.13;;;22.90;73.10;24.20;101607.00;;;;5027719;28;20685;-48
2023/09/03 00:33:31;;;;;;;7.60;6.97;;;22.90;72.90;24.10;101602.00;;;;5028349;28;20583;-50
2023/09/03 00:35:58;;;;;;;7.82;7.03;;;22.80;72.90;24.10;101599.00;;;;5027924;28;20269;-50
2023/09/03 00:38:24;;;;;;;8.60;7.72;;;22.80;72.60;24.10;101598.00;;;;5027860;28;20195;-50
2023/09/03 00:40:50;;;;;;;8.32;7.50;;;22.80;72.40;24.10;101599.00;;;;5027481;28;20210;-50
2023/09/03 00:43:16;;;;;;;8.27;7.67;;;22.80;72.40;24.10;101597.00;;;;5027402;28;20261;-49
2023/09/03 00:45:42;;;;;;;9.27;8.53;;;22.80;72.40;24.00;101593.00;;;;5027749;28;20322;-48
2023/09/03 00:48:09;;;;;;;9.23;8.53;;;22.80;72.30;24.00;101597.00;;;;5027652;28;20262;-48
2023/09/03 00:50:36;;;;;;;8.77;7.97;;;22.80;72.50;24.00;101592.00;;;;5009720;28;20221;-49
2023/09/03 00:53:01;;;;;;;9.03;8.27;;;22.80;72.50;24.00;101599.00;;;;5010056;28;20229;-49
2023/09/03 00:55:27;;;;;;;9.10;8.40;;;22.80;72.40;24.00;101592.00;;;;5027654;28;20171;-49
2023/09/03 00:57:53;;;;;;;8.27;7.57;;;22.70;72.30;23.90;101601.00;;;;5027607;28;20657;-48
2023/09/03 01:00:18;;;;;;;8.60;7.90;;;22.70;72.30;23.90;101606.00;;;;5027173;28;20218;-49
2023/09/03 01:02:44;;;;;;;8.37;7.33;;;22.70;72.30;23.90;101607.00;;;;4993585;28;20241;-49
2023/09/03 01:05:10;;;;;;;8.03;7.43;;;22.70;72.20;23.90;101612.00;;;;5010057;28;20179;-48
2023/09/03 01:07:36;;;;;;;7.60;7.00;;;22.70;72.20;23.90;101621.00;;;;5027879;28;20183;-49
2023/09/03 01:10:03;;;;;;;7.40;6.80;;;22.60;72.10;23.90;101620.00;;;;5009805;28;20249;-49
2023/09/03 01:12:35;;;;;;;8.03;7.43;;;22.60;72.10;23.80;101638.00;;;;5010226;28;20621;-49
2023/09/03 01:15:17;;;;;;;7.77;7.07;;;22.60;72.10;23.80;101630.00;;;;5010961;28;20266;-50
2023/09/03 01:18:07;;;;;;;7.47;6.87;;;22.60;72.10;23.80;101633.00;;;;5010959;28;20660;-48
2023/09/03 01:21:09;;;;;;;6.70;6.20;;;22.60;72.10;23.80;101644.00;;;;5010023;28;20661;-48
2023/09/03 01:23:48;;;;;;;7.70;6.57;;;22.60;72.10;23.70;101648.00;;;;5030417;28;20213;-49
2023/09/03 01:26:34;;;;;;;7.00;6.33;;;22.60;72.10;23.70;101658.00;;;;5031184;28;20175;-48
2023/09/03 01:29:00;;;;;;;7.87;7.17;;;22.50;71.70;23.70;101644.00;;;;5013157;28;20194;-49
2023/09/03 01:31:26;;;;;;;8.20;7.50;;;22.60;71.80;23.70;101648.00;;;;5013407;28;20308;-49
2023/09/03 01:33:51;;;;;;;8.93;8.10;;;22.50;71.70;23.70;101627.00;;;;5013292;28;20213;-49
2023/09/03 01:36:17;;;;;;;8.40;7.60;;;22.60;71.60;23.70;101653.00;;;;5013437;28;20218;-49
2023/09/03 01:38:43;;;;;;;8.83;8.10;;;22.50;71.40;23.60;101638.00;;;;5013270;28;20224;-49
2023/09/03 01:41:09;;;;;;;8.13;7.33;;;22.50;71.40;23.60;101650.00;;;;5030909;28;20214;-49
2023/09/03 01:43:35;;;;;;;8.27;7.50;;;22.50;71.40;23.60;101644.00;;;;5030757;28;20194;-49
2023/09/03 01:46:24;;;;;;;9.50;7.63;;;22.50;71.50;23.60;101643.00;;;;5031121;28;20566;-50
2023/09/03 01:49:31;;;;;;;8.20;7.53;;;22.50;71.50;23.60;101657.00;;;;5013157;28;20210;-49
2023/09/03 01:52:37;;;;;;;7.70;7.00;;;22.50;71.50;23.50;101656.00;;;;5030643;28;20210;-50
2023/09/03 01:55:05;;;;;;;7.77;7.07;;;22.50;71.50;23.50;101660.00;;;;5038431;28;20167;-49
2023/09/03 01:57:43;;;;;;;8.63;7.93;;;22.50;71.40;23.50;101645.00;;;;5017077;28;20179;-49
2023/09/03 02:00:12;;;;;;;8.27;7.63;;;22.40;71.30;23.50;101655.00;;;;5014282;28;20812;-50
2023/09/03 02:02:38;;;;;;;8.07;7.37;;;22.40;71.30;23.40;101645.00;;;;5025152;28;20207;-50
2023/09/03 02:05:06;;;;;;;8.27;7.57;;;22.40;71.30;23.40;101651.00;;;;4986729;28;20179;-49
2023/09/03 02:07:32;;;;;;;8.43;7.63;;;22.40;71.30;23.40;101646.00;;;;4997758;28;20573;-49
2023/09/03 02:09:57;;;;;;;8.20;7.40;;;22.40;71.20;23.40;101645.00;;;;5036533;28;20178;-49
2023/09/03 02:12:25;;;;;;;7.60;7.00;;;22.40;71.10;23.40;101649.00;;;;5048519;28;20214;-49
2023/09/03 02:14:52;;;;;;;8.03;7.00;;;22.40;71.10;23.40;101651.00;;;;5030912;28;20510;-48
2023/09/03 02:17:21;;;;;;;8.47;7.67;;;22.40;71.20;23.30;101653.00;;;;5030647;28;20270;-48
2023/09/03 02:19:49;;;;;;;8.20;7.50;;;22.40;71.20;23.30;101655.00;;;;5030208;28;20246;-49
2023/09/03 02:22:15;;;;;;;7.93;7.23;;;22.30;71.10;23.30;101644.00;;;;5029966;28;20298;-49
2023/09/03 02:24:40;;;;;;;7.53;6.83;;;22.40;71.20;23.30;101657.00;;;;5030394;28;20253;-50
2023/09/03 02:27:06;;;;;;;8.20;7.50;;;22.30;71.00;23.30;101665.00;;;;5029994;28;20244;-49
2023/09/03 02:29:32;;;;;;;8.10;7.40;;;22.40;71.10;23.30;101657.00;;;;5029631;28;20651;-50
2023/09/03 02:31:58;;;;;;;7.40;6.80;;;22.30;70.90;23.20;101652.00;;;;5029749;28;20199;-50
2023/09/03 02:34:23;;;;;;;7.73;7.03;;;22.30;70.90;23.20;101652.00;;;;5029521;28;20194;-49
2023/09/03 02:36:49;;;;;;;7.40;6.70;;;22.30;70.90;23.00;101663.00;;;;5012040;28;20297;-50
2023/09/03 02:39:15;;;;;;;7.60;6.97;;;22.30;71.00;23.20;101663.00;;;;5029651;28;20198;-49
2023/09/03 02:41:41;;;;;;;7.13;6.63;;;22.30;70.90;23.20;101673.00;;;;5029585;28;20208;-49
2023/09/03 02:44:09;;;;;;;7.30;6.70;;;22.20;70.90;23.10;101678.00;;;;5029613;28;20677;-49
2023/09/03 02:46:35;;;;;;;8.80;6.87;;;22.20;70.90;23.10;101677.00;;;;5029895;28;20194;-48
2023/09/03 02:49:01;;;;;;;7.20;6.50;;;22.20;70.90;23.10;101679.00;;;;5029731;28;20183;-49
2023/09/03 02:51:27;;;;;;;7.53;6.90;;;22.20;70.90;23.10;101671.00;;;;5029693;28;20273;-49
2023/09/03 02:53:54;;;;;;;7.60;6.90;;;22.20;70.90;23.10;101665.00;;;;5030006;28;20187;-50
2023/09/03 02:56:21;;;;;;;8.03;7.23;;;22.20;70.90;23.10;101666.00;;;;5029541;28;20183;-50
2023/09/03 02:58:50;;;;;;;7.50;6.80;;;22.20;70.90;23.00;101666.00;;;;5029652;28;20259;-49
2023/09/03 03:01:18;;;;;;;7.10;6.50;;;22.20;70.90;23.00;101660.00;;;;5022587;28;21298;-49
2023/09/03 03:03:45;;;;;;;7.60;7.00;;;22.20;71.10;23.00;101667.00;;;;5015002;28;20655;-49
2023/09/03 03:06:10;;;;;;;7.17;6.57;;;22.10;70.80;23.00;101674.00;;;;5029645;28;20270;-48
2023/09/03 03:08:36;;;;;;;7.80;7.20;;;22.20;71.00;23.00;101669.00;;;;5013178;28;20183;-50
2023/09/03 03:11:12;;;;;;;7.30;6.70;;;22.10;70.90;23.00;101679.00;;;;5028150;28;20203;-49
2023/09/03 03:13:39;;;;;;;7.37;6.80;;;22.10;70.90;23.00;101691.00;;;;4998826;28;20664;-49
2023/09/03 03:16:06;;;;;;;8.10;7.37;;;22.10;70.80;22.90;101702.00;;;;5030766;28;20186;-48
2023/09/03 03:18:35;;;;;;;7.67;6.97;;;22.10;70.90;22.90;101704.00;;;;5012944;28;20187;-49
2023/09/03 03:21:19;;;;;;;7.97;7.33;;;22.10;70.90;22.90;101718.00;;;;5029497;28;20241;-49
2023/09/03 03:23:49;;;;;;;9.13;8.30;;;22.10;70.90;22.90;101720.00;;;;5013409;28;20205;-49
2023/09/03 03:26:15;;;;;;;9.57;8.67;;;22.10;71.00;22.90;101707.00;;;;5028832;28;20572;-48
2023/09/03 03:28:41;;;;;;;15.13;8.50;;;22.00;70.90;22.80;101694.00;;;;5030463;28;20605;-48
2023/09/03 03:31:16;;;;;;;9.97;8.03;;;22.00;71.50;22.80;101639.00;;;;5030206;28;20203;-49
2023/09/03 03:33:42;;;;;;;8.73;7.93;;;22.00;71.20;22.80;101689.00;;;;5030360;28;20261;-48
2023/09/03 03:36:12;;;;;;;8.73;7.80;;;22.00;71.10;22.80;101692.00;;;;5012221;28;20175;-49
2023/09/03 03:38:37;;;;;;;8.93;7.43;;;22.00;71.10;22.80;101688.00;;;;5029854;28;20369;-49
2023/09/03 03:41:10;;;;;;;8.03;6.80;;;22.00;71.00;22.70;101681.00;;;;5029827;28;20681;-48
2023/09/03 03:43:37;;;;;;;8.47;7.67;;;22.00;71.00;22.70;101682.00;;;;5029896;28;20739;-48
2023/09/03 03:46:03;;;;;;;8.10;7.40;;;22.00;71.00;22.70;101676.00;;;;5029079;28;20297;-48
2023/09/03 03:48:29;;;;;;;8.87;8.07;;;22.00;70.90;22.70;101668.00;;;;5029891;28;20641;-49
2023/09/03 03:50:55;;;;;;;8.40;7.70;;;21.90;70.90;22.70;101668.00;;;;5029611;28;20205;-49
2023/09/03 03:53:21;;;;;;;8.03;7.43;;;21.90;70.70;22.70;101665.00;;;;5030014;28;20189;-49
2023/09/03 03:55:46;;;;;;;8.30;7.60;;;21.90;70.70;22.70;101666.00;;;;5005606;28;20183;-49
2023/09/03 03:58:12;;;;;;;8.03;7.43;;;21.90;70.80;22.60;101662.00;;;;5026614;28;20171;-50
2023/09/03 04:00:38;;;;;;;8.50;7.70;;;21.90;70.70;22.60;101680.00;;;;5049718;28;20211;-49
2023/09/03 04:03:04;;;;;;;7.93;7.13;;;21.90;70.70;22.60;101674.00;;;;5025146;28;20290;-51
2023/09/03 04:05:30;;;;;;;8.67;7.87;;;21.80;70.60;22.60;101670.00;;;;5030418;28;20213;-48
2023/09/03 04:07:55;;;;;;;8.10;7.40;;;21.80;70.60;22.60;101667.00;;;;5030351;28;20202;-48
2023/09/03 04:10:21;;;;;;;9.20;8.27;;;21.80;70.60;22.60;101667.00;;;;5029890;28;20557;-48
2023/09/03 04:12:47;;;;;;;10.00;9.10;;;21.80;70.60;22.50;101668.00;;;;5037646;28;20368;-48
2023/09/03 04:15:12;;;;;;;8.67;7.87;;;21.80;70.60;22.50;101675.00;;;;5045502;28;20228;-48
2023/09/03 04:17:38;;;;;;;7.93;7.17;;;21.80;70.60;22.50;101683.00;;;;5029546;28;20248;-48
2023/09/03 04:20:05;;;;;;;7.40;6.90;;;21.70;71.10;22.50;101687.00;;;;5029121;28;20604;-49
2023/09/03 04:22:31;;;;;;;8.67;7.80;;;21.80;70.90;22.50;101696.00;;;;5029328;28;20195;-48
2023/09/03 04:24:56;;;;;;;9.20;8.43;;;21.70;70.80;22.50;101680.00;;;;5029209;28;20219;-48
2023/09/03 04:27:22;;;;;;;10.57;9.57;;;21.80;70.90;22.40;101700.00;;;;5029114;28;20183;-49
2023/09/03 04:29:48;;;;;;;11.43;10.43;;;21.80;71.00;22.40;101693.00;;;;5028952;28;20178;-48
2023/09/03 04:32:14;;;;;;;10.40;9.50;;;21.70;71.10;22.40;101707.00;;;;5029121;28;20369;-48
2023/09/03 04:34:40;;;;;;;10.40;9.40;;;21.70;71.00;22.40;101706.00;;;;5029391;28;20273;-49
2023/09/03 04:37:06;;;;;;;10.20;9.17;;;21.70;71.10;22.40;101703.00;;;;5025477;28;20186;-48
2023/09/03 04:39:31;;;;;;;10.90;9.90;;;21.70;71.10;22.40;101706.00;;;;5026992;28;20197;-48
2023/09/03 04:41:57;;;;;;;13.30;12.10;;;21.70;71.20;22.40;101703.00;;;;5027852;28;20210;-48
2023/09/03 04:44:23;;;;;;;13.17;12.07;;;21.70;71.20;22.40;101712.00;;;;5028814;28;20183;-48
2023/09/03 04:46:49;;;;;;;14.30;13.07;;;21.70;71.20;22.30;101720.00;;;;5028675;28;20661;-49
2023/09/03 04:49:14;;;;;;;13.17;12.07;;;21.70;71.30;22.30;101730.00;;;;5028486;28;20229;-48
2023/09/03 04:51:42;;;;;;;13.80;12.53;;;21.60;71.30;22.30;101742.00;;;;5028430;28;20202;-49
2023/09/03 04:54:08;;;;;;;12.60;11.60;;;21.60;71.40;22.30;101748.00;;;;5028667;28;20210;-49
2023/09/03 04:56:34;;;;;;;13.23;12.13;;;21.60;71.60;22.30;101739.00;;;;5028766;28;20781;-49
2023/09/03 04:58:59;;;;;;;14.57;13.37;;;21.60;71.60;22.20;101744.00;;;;5014174;28;20191;-48
2023/09/03 05:01:25;;;;;;;13.60;12.50;;;21.50;71.70;22.20;101740.00;;;;5031336;28;20218;-49
2023/09/03 05:03:51;;;;;;;13.17;12.07;;;21.50;71.70;22.20;101746.00;;;;5028327;28;20214;-49
2023/09/03 05:06:16;;;;;;;13.13;12.07;;;21.50;72.60;22.20;101751.00;;;;5032593;28;20670;-49
2023/09/03 05:08:43;;;;;;;13.20;12.10;;;21.50;71.90;22.20;101754.00;;;;5032082;28;20237;-48
2023/09/03 05:11:12;;;;;;;12.60;11.50;;;21.50;71.90;22.20;101756.00;;;;5032055;28;20574;-49
2023/09/03 05:13:41;;;;;;;11.80;10.70;;;21.50;71.90;22.10;101759.00;;;;5032380;28;20198;-49
2023/09/03 05:16:07;;;;;;;12.10;11.10;;;21.50;71.80;22.10;101752.00;;;;5032259;28;20187;-49
2023/09/03 05:18:33;;;;;;;12.10;11.10;;;21.50;71.70;22.10;101767.00;;;;5014531;28;20853;-49
2023/09/03 05:21:09;;;;;;;11.40;10.40;;;21.50;71.70;22.10;101766.00;;;;5031794;28;20207;-49
2023/09/03 05:23:35;;;;;;;10.73;9.90;;;21.50;71.60;22.10;101781.00;;;;5031437;28;20273;-49
2023/09/03 05:26:01;;;;;;;11.00;10.00;;;21.40;71.60;22.10;101773.00;;;;5032092;28;20609;-48
2023/09/03 05:28:27;;;;;;;10.10;9.30;;;21.40;71.60;22.10;101776.00;;;;5014281;28;20210;-48
2023/09/03 05:30:52;;;;;;;10.23;9.27;;;21.40;71.70;22.00;101773.00;;;;5031793;28;20202;-48
2023/09/03 05:33:18;;;;;;;9.33;8.53;;;21.40;71.90;22.00;101771.00;;;;5031443;28;20788;-49
2023/09/03 05:35:44;;;;;;;9.80;9.00;;;21.40;72.00;22.00;101776.00;;;;5032341;28;20186;-49
2023/09/03 05:38:10;;;;;;;9.80;8.90;;;21.40;72.00;22.00;101773.00;;;;5031418;28;20564;-49
2023/09/03 05:40:36;;;;;;;9.60;8.80;;;21.40;72.10;22.00;101772.00;;;;5031591;28;20198;-48
2023/09/03 05:43:01;;;;;;;11.00;8.90;;;21.30;72.10;22.00;101789.00;;;;5030392;28;20209;-48
2023/09/03 05:45:27;;;;;;;10.17;9.27;;;21.30;72.10;22.00;101777.00;;;;5014308;28;20355;-49
2023/09/03 05:47:53;;;;;;;9.27;8.37;;;21.30;72.20;22.00;101788.00;;;;5032121;28;20649;-48
2023/09/03 05:50:18;;;;;;;9.87;9.07;;;21.30;72.20;21.90;101792.00;;;;5031447;28;20185;-49
2023/09/03 05:52:44;;;;;;;9.97;9.17;;;21.30;72.30;21.90;101805.00;;;;5031506;28;20703;-49
2023/09/03 05:55:10;;;;;;;11.70;10.60;;;21.30;72.30;21.90;101797.00;;;;5032015;28;20183;-49
2023/09/03 05:57:36;;;;;;;12.20;11.20;;;21.30;72.50;21.90;101796.00;;;;5038262;28;20178;-52
2023/09/03 06:00:03;;;;;;;12.50;11.40;;;21.30;72.50;21.90;101808.00;;;;5046570;28;20250;-49
2023/09/03 06:02:29;;;;;;;11.30;10.30;;;21.30;72.60;21.90;101803.00;;;;5033602;28;20657;-48
2023/09/03 06:04:54;;;;;;;11.37;10.47;;;21.20;72.60;21.90;101803.00;;;;5032478;28;20179;-49
2023/09/03 06:07:20;;;;;;;11.77;10.73;;;21.20;72.60;21.90;101811.00;;;;5031366;28;20179;-49
2023/09/03 06:09:46;;;;;;;11.03;10.07;;;21.20;72.80;21.90;101817.00;;;;5031129;28;20660;-49
2023/09/03 06:12:11;;;;;;;11.47;10.47;;;21.20;72.90;21.80;101828.00;;;;5039013;28;20253;-49
2023/09/03 06:14:38;;;;;;;10.43;9.57;;;21.20;73.00;21.80;101832.00;;;;5050424;28;20225;-49
2023/09/03 06:17:04;;;;;;;9.80;9.00;;;21.20;73.00;21.80;101831.00;;;;5033120;28;20183;-49
2023/09/03 06:19:30;;;;;;;9.10;8.40;;;21.20;73.00;21.80;101836.00;;;;5031288;28;20171;-49
2023/09/03 06:21:56;;;;;;;9.77;8.97;;;21.10;73.00;21.80;101837.00;;;;5029739;28;20875;-49
2023/09/03 06:24:22;;;;;;;9.97;9.17;;;21.10;73.20;21.80;101844.00;;;;5031424;28;20187;-49
2023/09/03 06:26:48;;;;;;;9.80;9.00;;;21.10;73.20;21.80;101840.00;;;;5013872;28;20669;-48
2023/09/03 06:29:13;;;;;;;9.20;8.50;;;21.10;73.20;21.80;101845.00;;;;5030980;28;20258;-48
2023/09/03 06:31:39;;;;;;;8.30;7.60;;;21.10;73.20;21.80;101859.00;;;;5030974;28;20225;-49
2023/09/03 06:34:05;;;;;;;8.10;7.40;;;21.10;73.40;21.80;101861.00;;;;5031191;28;20178;-48
2023/09/03 06:36:31;;;;;;;7.30;6.70;;;21.10;73.30;21.80;101860.00;;;;5031166;28;20186;-49
2023/09/03 06:38:57;;;;;;;7.17;6.57;;;21.10;73.20;21.80;101855.00;;;;5012828;28;20214;-48
2023/09/03 06:41:22;;;;;;;7.73;6.90;;;21.20;73.30;21.80;101872.00;;;;5030968;28;20241;-52
2023/09/03 06:43:48;;;;;;;8.57;6.90;;;21.20;73.40;21.90;101875.00;;;;5030946;28;20268;-54
2023/09/03 06:46:14;;;;;;;7.90;6.13;;;21.20;73.30;21.90;101872.00;;;;5030879;28;20677;-54
2023/09/03 06:48:40;;;;;;;7.63;6.60;;;21.30;73.40;21.90;101886.00;;;;5013183;28;20194;-53
2023/09/03 06:51:06;;;;;;;6.43;5.80;;;21.30;73.40;21.90;101893.00;;;;5012847;28;20195;-53
2023/09/03 06:53:31;;;;;;;6.93;6.07;;;21.30;73.50;21.90;101889.00;;;;5030499;28;20245;-53
2023/09/03 06:55:57;;;;;;;6.97;5.40;;;21.30;73.40;21.90;101904.00;;;;5030660;28;20592;-53
2023/09/03 06:58:23;;;;;;;6.27;5.67;;;21.30;73.40;21.90;101906.00;;;;5030613;28;20179;-52
2023/09/03 07:00:49;;;;;;;5.80;5.30;;;21.30;73.40;21.90;101894.00;;;;5022541;28;20298;-53
2023/09/03 07:03:14;;;;;;;5.83;5.30;;;21.30;73.40;21.80;101901.00;;;;5017503;28;20281;-53
2023/09/03 07:05:41;;;;;;;5.60;5.10;;;21.30;73.40;21.90;101916.00;;;;5021386;28;20707;-53
2023/09/03 07:08:07;;;;;;;5.53;5.03;;;21.30;73.40;22.00;101917.00;;;;5019182;28;20590;-53
2023/09/03 07:10:33;;;;;;;5.80;5.30;;;21.30;73.50;22.00;101931.00;;;;5028631;28;20195;-53
2023/09/03 07:12:59;;;;;;;5.30;4.80;;;21.30;73.50;22.00;101920.00;;;;5028576;28;20183;-53
2023/09/03 07:15:25;;;;;;;6.00;5.40;;;21.30;73.50;22.00;101925.00;;;;5018921;28;20167;-53
2023/09/03 07:17:51;;;;;;;5.30;4.80;;;21.30;73.60;22.00;101929.00;;;;5012371;28;20271;-53
2023/09/03 07:20:17;;;;;;;5.67;5.10;;;21.30;73.80;22.00;101925.00;;;;5029527;28;20286;-53
2023/09/03 07:22:43;;;;;;;5.60;5.13;;;21.30;74.10;22.00;101920.00;;;;5029428;28;20202;-53
2023/09/03 07:25:09;;;;;;;5.43;4.93;;;21.30;74.30;22.00;101920.00;;;;5030054;28;20225;-53
2023/09/03 07:27:38;;;;;;;5.20;4.80;;;21.30;74.20;22.00;101923.00;;;;5029617;28;20174;-53
2023/09/03 07:30:06;;;;;;;5.17;4.67;;;21.30;74.30;22.00;101923.00;;;;5029835;28;20179;-53
2023/09/03 07:32:32;;;;;;;5.63;5.13;;;21.30;74.50;22.00;101927.00;;;;5024530;28;20183;-53
2023/09/03 07:34:57;;;;;;;5.70;5.10;;;21.30;74.60;22.00;101926.00;;;;5025246;28;20182;-52
2023/09/03 07:37:23;;;;;;;5.50;5.00;;;21.30;74.70;22.00;101929.00;;;;5028978;28;20179;-53
2023/09/03 07:39:49;;;;;;;5.43;5.00;;;21.30;75.00;22.00;101935.00;;;;5026183;28;20171;-52
2023/09/03 07:42:15;;;;;;;5.80;5.30;;;21.30;75.00;22.00;101939.00;;;;5029697;28;20273;-53
2023/09/03 07:44:40;;;;;;;5.20;4.80;;;21.30;75.10;22.00;101943.00;;;;5028725;28;20246;-53
2023/09/03 07:47:06;;;;;;;5.67;5.27;;;21.30;75.00;22.00;101939.00;;;;5010301;28;20715;-54
2023/09/03 07:49:32;;;;;;;5.27;4.87;;;21.30;75.60;22.00;101954.00;;;;5026575;28;20681;-55
2023/09/03 07:51:57;;;;;;;5.40;5.00;;;21.30;75.60;22.10;101965.00;;;;5016524;28;20205;-63
2023/09/03 07:54:23;;;;;;;7.10;4.60;;;21.30;75.80;22.10;101957.00;;;;5013789;28;20186;-52
2023/09/03 07:56:49;;;;;;;5.40;4.90;;;21.30;76.10;22.00;101949.00;;;;5035927;28;20181;-55
2023/09/03 07:59:14;;;;;;;5.50;4.93;;;21.30;76.00;22.10;101952.00;;;;5033039;28;20183;-54
2023/09/03 08:01:40;;;;;;;5.27;4.87;;;21.30;75.90;22.10;101952.00;;;;5024290;28;20210;-53
2023/09/03 08:04:06;;;;;;;5.10;4.70;;;21.30;75.80;22.10;101955.00;;;;5021868;28;20253;-54
2023/09/03 08:06:32;;;;;;;5.00;4.60;;;21.40;75.80;22.10;101960.00;;;;5029519;28;20198;-53
2023/09/03 08:08:57;;;;;;;4.63;4.30;;;21.30;76.40;22.10;101954.00;;;;5028881;28;20847;-53
2023/09/03 08:11:23;;;;;;;5.13;4.73;;;21.30;75.60;22.10;101960.00;;;;5037414;28;20195;-59
2023/09/03 08:13:57;;;;;;;4.73;4.40;;;21.30;75.40;22.10;101962.00;;;;5046749;28;20179;-54
2023/09/03 08:16:23;;;;;;;5.13;4.67;;;21.30;75.50;22.10;101956.00;;;;5012220;28;20190;-53
2023/09/03 08:18:49;;;;;;;4.40;4.10;;;21.30;75.50;22.10;101957.00;;;;5028615;28;20234;-53
2023/09/03 08:21:14;;;;;;;4.63;4.27;;;21.30;75.50;22.10;101959.00;;;;5007221;28;20285;-53
2023/09/03 08:23:43;;;;;;;4.80;4.40;;;21.40;75.50;22.10;101957.00;;;;5016405;28;20880;-53
2023/09/03 08:26:09;;;;;;;4.77;4.37;;;21.30;75.40;22.10;101955.00;;;;5027228;28;20209;-53
2023/09/03 08:28:34;;;;;;;6.47;4.63;;;21.40;75.60;22.10;101954.00;;;;5007415;28;20632;-54
2023/09/03 08:31:00;;;;;;;7.30;4.50;;;21.30;75.60;22.10;101957.00;;;;5028986;28;20227;-53
2023/09/03 08:33:26;;;;;;;6.50;4.37;;;21.30;75.60;22.10;101952.00;;;;5011251;28;20277;-53
2023/09/03 08:35:51;;;;;;;5.30;4.40;;;21.40;75.80;22.10;101959.00;;;;5029522;28;20261;-53
2023/09/03 08:38:17;;;;;;;7.20;4.50;;;21.40;75.70;22.10;101965.00;;;;5001761;28;20186;-54
2023/09/03 08:40:46;;;;;;;8.73;4.17;;;21.40;76.00;22.10;101960.00;;;;5012212;28;20210;-54
2023/09/03 08:43:12;;;;;;;8.97;4.37;;;21.30;75.80;22.10;101955.00;;;;5025196;28;20685;-54
2023/09/03 08:45:43;;;;;;;4.73;4.30;;;21.40;75.80;22.10;101958.00;;;;5023572;28;20179;-55
2023/09/03 08:48:09;;;;;;;6.13;4.30;;;21.40;75.80;22.20;101961.00;;;;5006357;28;20245;-53
2023/09/03 08:50:35;;;;;;;6.80;4.40;;;21.40;75.90;22.20;101958.00;;;;5010845;28;20646;-53
2023/09/03 08:53:01;;;;;;;5.47;4.70;;;21.40;76.00;22.20;101957.00;;;;5006594;28;20262;-53
2023/09/03 08:55:29;;;;;;;5.63;4.50;;;21.40;76.10;22.20;101939.00;;;;5028620;28;20269;-54
2023/09/03 08:57:55;;;;;;;5.83;4.70;;;21.40;76.00;22.00;101969.00;;;;5011126;28;20183;-54
2023/09/03 09:00:21;;;;;;;4.90;4.40;;;21.40;76.10;22.20;101969.00;;;;5020158;28;20183;-52
2023/09/03 09:02:47;;;;;;;4.80;4.30;;;21.40;76.10;22.30;101960.00;;;;5024222;28;20214;-53
2023/09/03 09:05:13;;;;;;;5.37;4.10;;;21.40;76.20;22.30;101954.00;;;;5011454;28;20186;-52
2023/09/03 09:07:39;;;;;;;4.77;4.17;;;21.40;76.20;22.30;101963.00;;;;5011304;28;20183;-54
2023/09/03 09:10:08;;;;;;;4.80;4.37;;;21.40;76.20;22.30;101961.00;;;;5011061;28;20305;-52
2023/09/03 09:13:07;;;;;;;6.67;4.13;;;21.40;76.40;22.30;101936.00;;;;5027920;28;20191;-53
2023/09/03 09:15:36;;;;;;;4.47;4.00;;;21.40;76.40;22.30;101944.00;;;;5025152;28;20203;-53
2023/09/03 09:18:07;;;;;;;5.07;4.10;;;21.40;76.40;22.30;101949.00;;;;5028964;28;20179;-54
2023/09/03 09:20:32;;;;;;;4.23;3.83;;;21.40;76.40;22.30;101943.00;;;;5027700;28;20206;-53
2023/09/03 09:22:58;;;;;;;4.30;3.90;;;21.40;76.60;22.30;101935.00;;;;5027545;28;20203;-53
2023/09/03 09:25:25;;;;;;;4.47;4.07;;;21.40;76.70;22.40;101940.00;;;;5011236;28;20214;-53
2023/09/03 09:27:55;;;;;;;4.43;4.00;;;21.40;76.80;22.30;101929.00;;;;5027678;28;20178;-53
2023/09/03 09:30:24;;;;;;;4.57;4.00;;;21.40;76.90;22.40;101938.00;;;;5028648;28;20502;-53
2023/09/03 09:33:06;;;;;;;4.30;3.90;;;21.40;77.00;22.40;101941.00;;;;5029025;28;20190;-53
2023/09/03 09:35:31;;;;;;;4.20;3.90;;;21.40;77.00;22.40;101938.00;;;;5028682;28;20558;-53
2023/09/03 09:38:07;;;;;;;4.27;3.90;;;21.40;77.20;22.40;101952.00;;;;5028480;28;20202;-54
2023/09/03 09:40:36;;;;;;;4.30;4.00;;;21.40;77.20;22.40;101948.00;;;;5028350;28;20207;-53
2023/09/03 09:43:06;;;;;;;4.20;3.90;;;21.40;77.30;22.40;101952.00;;;;5028611;28;20230;-53
2023/09/03 09:45:32;;;;;;;4.40;4.00;;;21.40;77.40;22.40;101957.00;;;;5031363;28;20261;-53
2023/09/03 09:48:06;;;;;;;4.03;3.73;;;21.40;77.50;22.40;101953.00;;;;5032344;28;20189;-54
2023/09/03 09:50:36;;;;;;;4.37;3.97;;;21.40;77.80;22.40;101955.00;;;;5014344;28;20281;-54
2023/09/03 09:53:02;;;;;;;4.23;3.90;;;21.40;77.90;22.40;101956.00;;;;5014491;28;20183;-53
2023/09/03 09:55:31;;;;;;;4.00;3.70;;;21.40;77.90;22.40;101971.00;;;;5030963;28;20566;-53
2023/09/03 09:57:57;;;;;;;4.00;3.70;;;21.40;77.90;22.50;101959.00;;;;5046098;28;20176;-54
2023/09/03 10:00:37;;;;;;;4.20;3.63;;;21.50;78.20;22.50;101959.00;;;;5021349;28;20222;-52
2023/09/03 10:03:07;;;;;;;3.90;3.60;;;21.40;78.30;22.50;101965.00;;;;5027363;28;20199;-53
2023/09/03 10:05:34;;;;;;;4.00;3.70;;;21.50;78.40;22.50;101950.00;;;;5025475;28;20203;-53
2023/09/03 10:08:00;;;;;;;3.97;3.67;;;21.40;78.50;22.50;101951.00;;;;5028790;28;20213;-54
2023/09/03 10:10:26;;;;;;;3.73;3.53;;;21.40;78.60;22.50;101949.00;;;;5014485;28;20206;-53
2023/09/03 10:12:51;;;;;;;4.20;3.80;;;21.40;78.80;22.50;101942.00;;;;5052932;28;20289;-53
2023/09/03 10:15:17;;;;;;;4.50;4.10;;;21.50;78.90;22.50;101948.00;;;;5016147;28;20199;-52
2023/09/03 10:17:45;;;;;;;3.90;3.60;;;21.50;78.90;22.50;101943.00;;;;5014290;28;20175;-53
2023/09/03 10:20:15;;;;;;;4.00;3.70;;;21.50;78.90;22.50;101951.00;;;;5013993;28;20197;-53
2023/09/03 10:22:41;;;;;;;3.77;3.47;;;21.50;79.00;22.50;101959.00;;;;5032065;28;20558;-54
2023/09/03 10:25:14;;;;;;;4.20;3.90;;;21.50;79.10;22.50;101951.00;;;;5014235;28;20286;-53
2023/09/03 10:27:45;;;;;;;4.43;4.00;;;21.50;79.20;22.60;101948.00;;;;5014195;28;20183;-53
2023/09/03 10:30:12;;;;;;;4.27;3.87;;;21.50;79.30;22.60;101951.00;;;;5014512;28;20183;-53
2023/09/03 10:32:37;;;;;;;4.40;4.10;;;21.60;79.60;22.60;101947.00;;;;5013936;28;20385;-54
2023/09/03 10:35:11;;;;;;;4.00;3.70;;;21.60;79.60;22.60;101948.00;;;;5013902;28;20540;-53
2023/09/03 10:37:38;;;;;;;4.07;3.77;;;21.60;79.70;22.60;101936.00;;;;5031174;28;20179;-54
2023/09/03 10:40:24;;;;;;;4.13;3.83;;;21.60;79.70;22.60;101941.00;;;;5013627;28;20266;-53
2023/09/03 10:43:14;;;;;;;3.77;3.50;;;21.60;80.00;22.60;101949.00;;;;5022711;28;20202;-54
2023/09/03 10:45:40;;;;;;;4.17;3.87;;;21.70;80.10;22.60;101937.00;;;;5030966;28;20225;-54
2023/09/03 10:48:06;;;;;;;4.10;3.80;;;21.70;80.20;22.70;101935.00;;;;5031437;28;20187;-53